KARA

Acadiana Regional Airport

New Iberia, Louisiana, USA
METAR KARA 252153Z 20005KT 10SM CLR 27/23 A2991 RMK AO2 RAE16 SLP129 P0001 T02670228
Observed Flight Rules
May-25 @ 21:53 UTC (36 minutes ago) Visual Flight Rules
Wind Visibility Clouds
200° at 5 knots 10 miles
  • Clear skies
Temperatures Readings Precipitation
Current 27°C / 81°F
Dewpoint 23°C / 73°F
Humidity 79%
Altimeter 29.91" Hg
Pressure 1012.9 hPa
Elevation 18
Current Rain 0.01
METAR KARA 252153Z 20005KT 10SM CLR 27/23 A2991 RMK AO2 RAE16 SLP129 P0001 T02670228
Observed Flight Rules
May-25 @ 21:53 UTC
(36 minutes ago)
VFR
Wind Visibility
200° at 5 knots 10 miles
Clouds
  • Clear skies
Temperature Dewpoint
27°C / 81°F 23°C / 73°F
Humidity Altimeter Pressure
79% 29.91" Hg 1012.9 hPa
Current Rain
0.01